createdAt,value
2023-03-29T00:00:24.580Z,1.10
2023-03-29T00:05:33.267Z,1.20
2023-03-29T00:10:40.058Z,1.10
2023-03-29T00:15:47.375Z,0.90
2023-03-29T00:21:00.750Z,0.90
2023-03-29T00:26:08.607Z,1.10
2023-03-29T00:31:18.680Z,1.00
2023-03-29T00:36:27.031Z,0.90
2023-03-29T00:41:34.222Z,0.80
2023-03-29T00:46:41.705Z,1.00
2023-03-29T00:51:49.022Z,1.00
2023-03-29T00:56:56.119Z,1.20
2023-03-29T01:02:08.250Z,0.80
2023-03-29T01:07:22.073Z,0.80
2023-03-29T01:12:36.278Z,0.80
2023-03-29T01:17:48.301Z,1.00
2023-03-29T01:23:35.562Z,1.10
2023-03-29T01:29:01.174Z,1.10
2023-03-29T01:34:30.809Z,1.10
2023-03-29T01:39:38.497Z,1.10
2023-03-29T01:44:52.738Z,1.00
2023-03-29T01:50:12.956Z,1.00
2023-03-29T01:55:26.613Z,1.20
2023-03-29T02:00:35.291Z,1.20
2023-03-29T02:05:42.734Z,1.20
2023-03-29T02:10:49.856Z,1.10
2023-03-29T02:15:56.941Z,1.20
2023-03-29T02:21:04.205Z,1.10
2023-03-29T02:26:11.240Z,1.10
2023-03-29T02:31:28.247Z,1.10
2023-03-29T02:36:51.371Z,0.80
2023-03-29T02:41:59.051Z,1.00
2023-03-29T02:47:18.509Z,0.90
2023-03-29T02:52:29.832Z,0.90
2023-03-29T02:57:38.234Z,1.00
2023-03-29T03:02:45.085Z,1.10
2023-03-29T03:07:52.346Z,1.10
2023-03-29T03:12:59.185Z,1.20
2023-03-29T03:18:06.759Z,1.00
2023-03-29T03:23:13.616Z,1.10
2023-03-29T03:28:22.410Z,1.20
2023-03-29T03:33:29.469Z,1.30
2023-03-29T03:38:37.701Z,1.30
2023-03-29T03:43:46.046Z,1.30
2023-03-29T03:48:52.775Z,1.00
2023-03-29T03:53:59.512Z,1.10
2023-03-29T03:59:07.358Z,1.20
2023-03-29T04:04:14.822Z,1.40
2023-03-29T04:09:22.997Z,1.50
2023-03-29T04:14:31.609Z,1.50
2023-03-29T04:19:38.417Z,1.40
2023-03-29T04:24:45.230Z,1.30
2023-03-29T04:29:51.972Z,1.30
2023-03-29T04:34:58.725Z,1.10
2023-03-29T04:40:08.130Z,1.10
2023-03-29T04:45:18.782Z,1.20
2023-03-29T04:50:25.495Z,1.20
2023-03-29T04:55:32.302Z,1.20
2023-03-29T05:00:39.764Z,1.20
2023-03-29T05:05:46.480Z,1.40
2023-03-29T05:10:53.236Z,1.40
2023-03-29T05:16:00.945Z,1.50
2023-03-29T05:21:07.937Z,1.60
2023-03-29T05:26:15.631Z,1.60
2023-03-29T05:31:23.202Z,1.80
2023-03-29T05:36:29.994Z,1.70
2023-03-29T05:41:36.856Z,1.70
2023-03-29T05:46:43.620Z,1.80
2023-03-29T05:51:52.325Z,1.70
2023-03-29T05:57:03.870Z,1.80
2023-03-29T06:02:12.637Z,1.90
2023-03-29T06:07:19.850Z,2.00
2023-03-29T06:12:26.686Z,1.90
2023-03-29T06:17:34.852Z,1.70
2023-03-29T06:22:42.833Z,1.80
2023-03-29T06:27:50.067Z,1.80
2023-03-29T06:32:58.240Z,2.10
2023-03-29T06:38:05.904Z,2.10
2023-03-29T06:43:14.347Z,2.50
2023-03-29T06:48:22.014Z,2.60
2023-03-29T06:53:29.053Z,2.50
2023-03-29T06:58:36.037Z,2.50
2023-03-29T07:03:46.015Z,2.80
2023-03-29T07:08:53.894Z,2.90
2023-03-29T07:14:01.055Z,3.00
2023-03-29T07:19:09.508Z,2.60
2023-03-29T07:24:17.334Z,2.70
2023-03-29T07:29:24.193Z,2.90
2023-03-29T07:34:32.044Z,2.70
2023-03-29T07:39:38.883Z,3.00
2023-03-29T07:44:45.874Z,3.10
2023-03-29T07:49:52.752Z,3.30
2023-03-29T07:55:00.612Z,3.30
2023-03-29T08:00:11.345Z,3.60
2023-03-29T08:05:26.031Z,3.60
2023-03-29T08:10:28.276Z,3.60
2023-03-29T08:15:38.687Z,3.70
2023-03-29T08:20:45.895Z,3.50
2023-03-29T08:25:53.001Z,3.40
2023-03-29T08:31:00.395Z,3.50
2023-03-29T08:36:08.814Z,3.30
2023-03-29T08:42:01.391Z,3.50
2023-03-29T08:47:42.793Z,3.40
2023-03-29T08:52:59.215Z,3.50
2023-03-29T08:58:09.877Z,3.50
2023-03-29T09:03:32.320Z,3.40
2023-03-29T09:08:49.123Z,3.30
2023-03-29T09:14:34.910Z,3.30
2023-03-29T09:20:15.506Z,3.50
2023-03-29T09:25:53.639Z,3.60
2023-03-29T09:31:15.657Z,3.60
2023-03-29T09:36:43.834Z,3.70
2023-03-29T09:41:58.169Z,4.00
2023-03-29T09:47:27.424Z,3.70
2023-03-29T09:52:34.744Z,4.00
2023-03-29T09:57:41.704Z,4.00
2023-03-29T10:02:57.589Z,4.20
2023-03-29T10:08:07.336Z,4.30
2023-03-29T10:13:32.873Z,4.50
2023-03-29T10:18:44.425Z,4.50
2023-03-29T10:23:54.961Z,4.40
2023-03-29T10:29:04.464Z,4.40
2023-03-29T10:34:15.423Z,4.40
2023-03-29T10:39:22.472Z,4.50
2023-03-29T10:44:37.438Z,4.50
2023-03-29T10:49:49.834Z,4.70
2023-03-29T10:55:01.048Z,4.60
2023-03-29T11:00:21.538Z,4.40
2023-03-29T11:05:41.599Z,4.50
2023-03-29T11:11:07.978Z,4.80
2023-03-29T11:16:47.598Z,4.80
2023-03-29T11:22:16.695Z,5.00
2023-03-29T11:27:48.818Z,5.20
2023-03-29T11:33:38.069Z,5.20
2023-03-29T11:39:01.167Z,5.40
2023-03-29T11:44:21.196Z,5.50
2023-03-29T11:49:34.742Z,5.40
2023-03-29T11:54:57.757Z,5.60
2023-03-29T12:00:25.389Z,5.60
2023-03-29T12:05:52.016Z,5.80
2023-03-29T12:11:27.777Z,5.70
2023-03-29T12:16:47.621Z,6.10
2023-03-29T12:21:58.127Z,5.90
2023-03-29T12:27:24.283Z,6.30
2023-03-29T12:32:44.279Z,6.30
2023-03-29T12:38:01.383Z,6.50
2023-03-29T12:43:12.634Z,6.60
2023-03-29T12:48:24.319Z,6.70
2023-03-29T12:53:46.645Z,6.70
2023-03-29T12:59:00.813Z,6.80
2023-03-29T13:04:23.933Z,6.80
2023-03-29T13:09:51.675Z,6.70
2023-03-29T13:15:06.299Z,6.70
2023-03-29T13:20:55.082Z,6.70
2023-03-29T13:26:27.438Z,7.00
2023-03-29T13:31:50.776Z,7.20
2023-03-29T13:37:26.599Z,8.20
2023-03-29T13:42:42.250Z,8.40
2023-03-29T13:53:14.144Z,8.30
2023-03-29T13:58:38.077Z,7.70
2023-03-29T14:03:52.173Z,7.60
2023-03-29T14:08:57.781Z,7.40
2023-03-29T14:14:08.756Z,7.50
2023-03-29T14:19:37.834Z,7.90
2023-03-29T14:24:51.947Z,7.70
2023-03-29T14:29:59.135Z,7.70
2023-03-29T14:35:07.142Z,7.50
2023-03-29T14:40:20.866Z,7.10
2023-03-29T14:45:28.092Z,7.20
2023-03-29T14:50:35.675Z,7.60
2023-03-29T14:55:45.366Z,7.50
2023-03-29T15:00:55.181Z,7.50
2023-03-29T15:06:05.471Z,7.10
2023-03-29T15:11:25.545Z,7.10
2023-03-29T15:16:33.840Z,7.10
2023-03-29T15:21:43.529Z,7.20
2023-03-29T15:27:03.749Z,6.90
2023-03-29T15:32:13.914Z,6.80
2023-03-29T15:37:21.142Z,7.20
2023-03-29T15:42:28.930Z,7.20
2023-03-29T15:47:36.182Z,6.90
2023-03-29T15:52:43.929Z,7.00
2023-03-29T15:57:51.403Z,6.90
2023-03-29T16:02:58.954Z,6.80
2023-03-29T16:08:06.083Z,6.90
2023-03-29T16:13:15.544Z,6.90
2023-03-29T16:18:22.516Z,6.70
2023-03-29T16:23:29.395Z,6.70
2023-03-29T16:28:37.541Z,6.70
2023-03-29T16:33:44.478Z,6.60
2023-03-29T16:38:51.958Z,6.50
2023-03-29T16:43:59.387Z,6.40
2023-03-29T16:49:07.765Z,6.10
2023-03-29T16:54:15.217Z,6.20
2023-03-29T16:59:22.206Z,6.50
2023-03-29T17:04:29.487Z,6.30
2023-03-29T17:09:36.696Z,6.40
2023-03-29T17:14:43.890Z,6.30
2023-03-29T17:19:51.447Z,6.00
2023-03-29T17:24:58.754Z,5.90
2023-03-29T17:30:07.857Z,5.60
2023-03-29T17:35:15.646Z,5.60
2023-03-29T17:40:22.827Z,5.30
2023-03-29T17:45:29.554Z,4.90
2023-03-29T17:50:37.007Z,4.80
2023-03-29T17:55:43.723Z,4.30
2023-03-29T18:00:50.611Z,4.30
2023-03-29T18:05:59.474Z,4.30
2023-03-29T18:11:23.141Z,4.20
2023-03-29T18:16:30.018Z,4.20
2023-03-29T18:21:37.225Z,4.20
2023-03-29T18:26:44.620Z,4.10
2023-03-29T18:31:52.189Z,4.10
2023-03-29T18:36:59.806Z,3.90
2023-03-29T18:42:07.047Z,4.00
2023-03-29T18:47:13.840Z,3.90
2023-03-29T18:52:21.256Z,4.00
2023-03-29T18:57:28.550Z,3.90
2023-03-29T19:02:35.559Z,3.80
2023-03-29T19:07:42.475Z,3.70
2023-03-29T19:12:49.244Z,3.80
2023-03-29T19:17:56.070Z,3.70
2023-03-29T19:23:03.768Z,3.80
2023-03-29T19:28:10.684Z,3.80
2023-03-29T19:33:17.583Z,3.70
2023-03-29T19:38:25.016Z,3.60
2023-03-29T19:43:31.930Z,3.80
2023-03-29T19:48:40.225Z,3.70
2023-03-29T19:53:47.491Z,3.70
2023-03-29T19:58:55.307Z,3.60
2023-03-29T20:04:02.796Z,3.50
2023-03-29T20:09:09.793Z,3.50
2023-03-29T20:14:16.831Z,3.60
2023-03-29T20:19:25.441Z,3.70
2023-03-29T20:24:32.825Z,3.60
2023-03-29T20:29:39.569Z,3.40
2023-03-29T20:34:46.362Z,3.20
2023-03-29T20:39:53.907Z,3.40
2023-03-29T20:45:01.520Z,3.20
2023-03-29T20:50:10.802Z,3.30
2023-03-29T20:55:19.232Z,3.20
2023-03-29T21:00:26.372Z,3.20
2023-03-29T21:05:34.771Z,3.30
2023-03-29T21:10:42.666Z,3.40
2023-03-29T21:15:49.832Z,3.40
2023-03-29T21:20:56.510Z,3.20
2023-03-29T21:26:04.609Z,3.20
2023-03-29T21:31:11.849Z,3.00
2023-03-29T21:36:18.829Z,3.20
2023-03-29T21:41:26.581Z,3.00
2023-03-29T21:46:33.556Z,3.10
2023-03-29T21:51:40.351Z,3.10
2023-03-29T21:56:48.180Z,3.10
2023-03-29T22:01:55.233Z,3.20
2023-03-29T22:07:02.960Z,3.50
2023-03-29T22:12:12.409Z,3.40
2023-03-29T22:17:19.155Z,3.50
2023-03-29T22:22:26.726Z,3.60
2023-03-29T22:27:33.435Z,3.70
2023-03-29T22:32:40.969Z,3.70
2023-03-29T22:37:47.897Z,3.60
2023-03-29T22:42:54.982Z,3.70
2023-03-29T22:48:02.426Z,3.90
2023-03-29T22:53:10.468Z,4.00
2023-03-29T22:58:17.453Z,4.00
2023-03-29T23:03:24.718Z,3.80
2023-03-29T23:08:33.496Z,3.90
2023-03-29T23:13:40.673Z,3.90
2023-03-29T23:18:47.609Z,3.90
2023-03-29T23:23:54.970Z,3.80
2023-03-29T23:29:02.564Z,3.80
2023-03-29T23:34:09.525Z,3.90
2023-03-29T23:39:16.900Z,4.10
2023-03-29T23:44:23.900Z,4.10
2023-03-29T23:49:31.256Z,4.30
2023-03-29T23:54:38.110Z,4.30
2023-03-29T23:59:45.684Z,4.30
